sensor_id;sensor_type;location;lat;lon;timestamp;pressure;altitude;pressure_sealevel;temperature;humidity
13612;BME280;6877;51.436;6.774;2023-02-22T00:01:57;101134.78;;;4.96;100.00
13612;BME280;6877;51.436;6.774;2023-02-22T00:04:50;101138.84;;;4.75;100.00
13612;BME280;6877;51.436;6.774;2023-02-22T00:07:16;101133.50;;;4.61;100.00
13612;BME280;6877;51.436;6.774;2023-02-22T00:09:46;101134.31;;;4.54;100.00
13612;BME280;6877;51.436;6.774;2023-02-22T00:12:12;101133.31;;;4.45;100.00
13612;BME280;6877;51.436;6.774;2023-02-22T00:14:39;101135.66;;;4.28;100.00
13612;BME280;6877;51.436;6.774;2023-02-22T00:17:05;101122.47;;;4.09;100.00
13612;BME280;6877;51.436;6.774;2023-02-22T00:19:31;101130.94;;;3.98;100.00
13612;BME280;6877;51.436;6.774;2023-02-22T00:21:59;101127.31;;;3.85;100.00
13612;BME280;6877;51.436;6.774;2023-02-22T00:24:28;101127.09;;;3.71;100.00
13612;BME280;6877;51.436;6.774;2023-02-22T00:26:56;101128.56;;;3.54;100.00
13612;BME280;6877;51.436;6.774;2023-02-22T00:29:27;101131.75;;;3.40;100.00
13612;BME280;6877;51.436;6.774;2023-02-22T00:31:54;101120.38;;;3.31;100.00
13612;BME280;6877;51.436;6.774;2023-02-22T00:34:21;101120.31;;;3.26;100.00
13612;BME280;6877;51.436;6.774;2023-02-22T00:36:49;101121.88;;;3.18;100.00
13612;BME280;6877;51.436;6.774;2023-02-22T00:39:20;101114.06;;;3.15;100.00
13612;BME280;6877;51.436;6.774;2023-02-22T00:41:52;101113.16;;;3.11;100.00
13612;BME280;6877;51.436;6.774;2023-02-22T00:44:23;101113.03;;;3.05;100.00
13612;BME280;6877;51.436;6.774;2023-02-22T00:46:49;101115.56;;;3.00;100.00
13612;BME280;6877;51.436;6.774;2023-02-22T00:49:21;101110.28;;;2.94;100.00
13612;BME280;6877;51.436;6.774;2023-02-22T00:51:52;101104.09;;;2.86;100.00
13612;BME280;6877;51.436;6.774;2023-02-22T00:54:19;101104.81;;;2.77;100.00
13612;BME280;6877;51.436;6.774;2023-02-22T00:56:46;101102.06;;;2.70;100.00
13612;BME280;6877;51.436;6.774;2023-02-22T00:59:18;101104.66;;;2.70;100.00
13612;BME280;6877;51.436;6.774;2023-02-22T01:01:44;101099.47;;;2.70;100.00
13612;BME280;6877;51.436;6.774;2023-02-22T01:04:10;101098.53;;;2.66;100.00
13612;BME280;6877;51.436;6.774;2023-02-22T01:06:42;101098.50;;;2.65;100.00
13612;BME280;6877;51.436;6.774;2023-02-22T01:09:13;101095.91;;;2.65;100.00
13612;BME280;6877;51.436;6.774;2023-02-22T01:11:39;101099.34;;;2.64;100.00
13612;BME280;6877;51.436;6.774;2023-02-22T01:14:06;101096.72;;;2.61;100.00
13612;BME280;6877;51.436;6.774;2023-02-22T01:16:35;101086.34;;;2.59;100.00
13612;BME280;6877;51.436;6.774;2023-02-22T01:19:06;101084.59;;;2.58;100.00
13612;BME280;6877;51.436;6.774;2023-02-22T01:21:32;101088.84;;;2.54;100.00
13612;BME280;6877;51.436;6.774;2023-02-22T01:23:59;101089.63;;;2.50;100.00
13612;BME280;6877;51.436;6.774;2023-02-22T01:26:25;101086.06;;;2.44;100.00
13612;BME280;6877;51.436;6.774;2023-02-22T01:28:52;101086.00;;;2.41;100.00
13612;BME280;6877;51.436;6.774;2023-02-22T01:31:18;101085.13;;;2.40;100.00
13612;BME280;6877;51.436;6.774;2023-02-22T01:33:44;101086.84;;;2.41;100.00
13612;BME280;6877;51.436;6.774;2023-02-22T01:36:16;101088.59;;;2.42;100.00
13612;BME280;6877;51.436;6.774;2023-02-22T01:38:44;101081.75;;;2.44;100.00
13612;BME280;6877;51.436;6.774;2023-02-22T01:41:11;101073.09;;;2.41;100.00
13612;BME280;6877;51.436;6.774;2023-02-22T01:43:38;101066.94;;;2.34;100.00
13612;BME280;6877;51.436;6.774;2023-02-22T01:46:16;101071.13;;;2.29;100.00
13612;BME280;6877;51.436;6.774;2023-02-22T01:48:48;101064.97;;;2.22;100.00
13612;BME280;6877;51.436;6.774;2023-02-22T01:51:21;101065.75;;;2.18;100.00
13612;BME280;6877;51.436;6.774;2023-02-22T01:56:35;101057.41;;;2.33;100.00
13612;BME280;6877;51.436;6.774;2023-02-22T01:59:07;101057.53;;;2.39;100.00
13612;BME280;6877;51.436;6.774;2023-02-22T02:01:35;101058.50;;;2.44;100.00
13612;BME280;6877;51.436;6.774;2023-02-22T02:04:06;101053.22;;;2.37;100.00
13612;BME280;6877;51.436;6.774;2023-02-22T02:06:35;101052.09;;;2.24;100.00
13612;BME280;6877;51.436;6.774;2023-02-22T02:09:15;101050.13;;;2.14;100.00
13612;BME280;6877;51.436;6.774;2023-02-22T02:11:45;101043.97;;;2.07;100.00
13612;BME280;6877;51.436;6.774;2023-02-22T02:14:12;101039.56;;;2.01;100.00
13612;BME280;6877;51.436;6.774;2023-02-22T02:16:48;101031.84;;;2.03;100.00
13612;BME280;6877;51.436;6.774;2023-02-22T02:19:30;101029.41;;;2.11;100.00
13612;BME280;6877;51.436;6.774;2023-02-22T02:36:19;101028.66;;;2.15;100.00
13612;BME280;6877;51.436;6.774;2023-02-22T02:41:44;101022.72;;;2.19;100.00
13612;BME280;6877;51.436;6.774;2023-02-22T02:46:50;101014.19;;;2.23;100.00
13612;BME280;6877;51.436;6.774;2023-02-22T02:49:29;101020.38;;;2.31;100.00
13612;BME280;6877;51.436;6.774;2023-02-22T02:51:59;101012.69;;;2.34;100.00
13612;BME280;6877;51.436;6.774;2023-02-22T02:54:33;101009.31;;;2.38;100.00
13612;BME280;6877;51.436;6.774;2023-02-22T02:57:02;101013.72;;;2.44;100.00
13612;BME280;6877;51.436;6.774;2023-02-22T02:59:36;101011.25;;;2.50;100.00
13612;BME280;6877;51.436;6.774;2023-02-22T03:10:37;101000.41;;;2.71;100.00
13612;BME280;6877;51.436;6.774;2023-02-22T03:18:39;100989.38;;;2.78;100.00
13612;BME280;6877;51.436;6.774;2023-02-22T03:24:30;100987.69;;;2.82;100.00
13612;BME280;6877;51.436;6.774;2023-02-22T03:29:38;100982.59;;;2.86;100.00
13612;BME280;6877;51.436;6.774;2023-02-22T03:32:16;100983.50;;;2.90;100.00
13612;BME280;6877;51.436;6.774;2023-02-22T03:34:57;100978.41;;;2.93;100.00
13612;BME280;6877;51.436;6.774;2023-02-22T03:37:28;100975.91;;;2.97;100.00
13612;BME280;6877;51.436;6.774;2023-02-22T03:39:59;100977.69;;;3.01;100.00
13612;BME280;6877;51.436;6.774;2023-02-22T03:42:34;100973.38;;;3.02;100.00
13612;BME280;6877;51.436;6.774;2023-02-22T03:45:04;100976.88;;;3.04;100.00
13612;BME280;6877;51.436;6.774;2023-02-22T03:47:41;100977.78;;;3.08;100.00
13612;BME280;6877;51.436;6.774;2023-02-22T03:50:19;100975.25;;;3.11;100.00
13612;BME280;6877;51.436;6.774;2023-02-22T03:52:47;100982.19;;;3.13;100.00
13612;BME280;6877;51.436;6.774;2023-02-22T03:55:14;100976.19;;;3.16;100.00
13612;BME280;6877;51.436;6.774;2023-02-22T03:57:50;100984.00;;;3.20;100.00
13612;BME280;6877;51.436;6.774;2023-02-22T04:00:25;100980.59;;;3.23;100.00
13612;BME280;6877;51.436;6.774;2023-02-22T04:02:53;100978.06;;;3.26;100.00
13612;BME280;6877;51.436;6.774;2023-02-22T04:05:24;100978.09;;;3.29;100.00
13612;BME280;6877;51.436;6.774;2023-02-22T04:07:56;100990.19;;;3.30;100.00
13612;BME280;6877;51.436;6.774;2023-02-22T04:10:23;100980.69;;;3.31;100.00
13612;BME280;6877;51.436;6.774;2023-02-22T04:12:55;100991.94;;;3.31;100.00
13612;BME280;6877;51.436;6.774;2023-02-22T04:15:22;100991.09;;;3.34;100.00
13612;BME280;6877;51.436;6.774;2023-02-22T04:17:49;100991.13;;;3.35;100.00
13612;BME280;6877;51.436;6.774;2023-02-22T04:20:17;100986.84;;;3.37;100.00
13612;BME280;6877;51.436;6.774;2023-02-22T04:22:45;100988.59;;;3.38;100.00
13612;BME280;6877;51.436;6.774;2023-02-22T04:25:17;100986.88;;;3.40;100.00
13612;BME280;6877;51.436;6.774;2023-02-22T04:27:44;100976.53;;;3.40;100.00
13612;BME280;6877;51.436;6.774;2023-02-22T04:30:11;100971.34;;;3.40;100.00
13612;BME280;6877;51.436;6.774;2023-02-22T04:32:38;100967.06;;;3.41;100.00
13612;BME280;6877;51.436;6.774;2023-02-22T04:35:09;100965.34;;;3.41;100.00
13612;BME280;6877;51.436;6.774;2023-02-22T04:37:36;100959.34;;;3.44;100.00
13612;BME280;6877;51.436;6.774;2023-02-22T04:40:04;100966.25;;;3.46;100.00
13612;BME280;6877;51.436;6.774;2023-02-22T04:42:38;100957.69;;;3.47;100.00
13612;BME280;6877;51.436;6.774;2023-02-22T04:45:10;100956.81;;;3.47;100.00
13612;BME280;6877;51.436;6.774;2023-02-22T04:47:37;100954.22;;;3.48;100.00
13612;BME280;6877;51.436;6.774;2023-02-22T04:50:06;100946.50;;;3.50;100.00
13612;BME280;6877;51.436;6.774;2023-02-22T04:52:32;100949.97;;;3.51;100.00
13612;BME280;6877;51.436;6.774;2023-02-22T04:55:04;100948.25;;;3.51;100.00
13612;BME280;6877;51.436;6.774;2023-02-22T04:57:35;100952.50;;;3.49;100.00
13612;BME280;6877;51.436;6.774;2023-02-22T05:00:07;100935.25;;;3.49;100.00
13612;BME280;6877;51.436;6.774;2023-02-22T05:02:38;100934.44;;;3.52;100.00
13612;BME280;6877;51.436;6.774;2023-02-22T05:05:05;100937.06;;;3.54;100.00
13612;BME280;6877;51.436;6.774;2023-02-22T05:07:32;100936.19;;;3.53;100.00
13612;BME280;6877;51.436;6.774;2023-02-22T05:09:58;100931.84;;;3.51;100.00
13612;BME280;6877;51.436;6.774;2023-02-22T05:12:27;100932.72;;;3.53;100.00
13612;BME280;6877;51.436;6.774;2023-02-22T05:14:53;100925.00;;;3.54;100.00
13612;BME280;6877;51.436;6.774;2023-02-22T05:17:25;100923.31;;;3.58;100.00
13612;BME280;6877;51.436;6.774;2023-02-22T05:19:51;100927.66;;;3.60;100.00
13612;BME280;6877;51.436;6.774;2023-02-22T05:22:18;100920.75;;;3.61;100.00
13612;BME280;6877;51.436;6.774;2023-02-22T05:24:49;100932.00;;;3.63;100.00
13612;BME280;6877;51.436;6.774;2023-02-22T05:27:18;100926.84;;;3.63;100.00
13612;BME280;6877;51.436;6.774;2023-02-22T05:29:44;100916.53;;;3.66;100.00
13612;BME280;6877;51.436;6.774;2023-02-22T05:32:11;100920.84;;;3.67;100.00
13612;BME280;6877;51.436;6.774;2023-02-22T05:34:37;100913.06;;;3.67;100.00
13612;BME280;6877;51.436;6.774;2023-02-22T05:37:04;100911.31;;;3.64;100.00
13612;BME280;6877;51.436;6.774;2023-02-22T05:39:30;100906.13;;;3.63;100.00
13612;BME280;6877;51.436;6.774;2023-02-22T05:41:57;100901.78;;;3.62;100.00
13612;BME280;6877;51.436;6.774;2023-02-22T05:44:24;100910.41;;;3.62;100.00
13612;BME280;6877;51.436;6.774;2023-02-22T05:46:50;100907.00;;;3.65;100.00
13612;BME280;6877;51.436;6.774;2023-02-22T05:49:21;100907.88;;;3.65;100.00
13612;BME280;6877;51.436;6.774;2023-02-22T05:51:53;100908.72;;;3.64;100.00
13612;BME280;6877;51.436;6.774;2023-02-22T05:54:24;100906.97;;;3.62;100.00
13612;BME280;6877;51.436;6.774;2023-02-22T05:56:56;100906.13;;;3.63;100.00
13612;BME280;6877;51.436;6.774;2023-02-22T05:59:27;100905.28;;;3.64;100.00
13612;BME280;6877;51.436;6.774;2023-02-22T06:01:54;100901.00;;;3.66;100.00
13612;BME280;6877;51.436;6.774;2023-02-22T06:04:21;100898.38;;;3.64;100.00
13612;BME280;6877;51.436;6.774;2023-02-22T06:06:47;100900.97;;;3.63;100.00
13612;BME280;6877;51.436;6.774;2023-02-22T06:09:18;100907.81;;;3.61;100.00
13612;BME280;6877;51.436;6.774;2023-02-22T06:11:50;100901.75;;;3.59;100.00
13612;BME280;6877;51.436;6.774;2023-02-22T06:14:17;100898.31;;;3.60;100.00
13612;BME280;6877;51.436;6.774;2023-02-22T06:16:43;100900.09;;;3.65;100.00
13612;BME280;6877;51.436;6.774;2023-02-22T06:19:16;100896.69;;;3.66;100.00
13612;BME280;6877;51.436;6.774;2023-02-22T06:21:52;100896.63;;;3.63;100.00
13612;BME280;6877;51.436;6.774;2023-02-22T06:24:24;100896.66;;;3.65;100.00
13612;BME280;6877;51.436;6.774;2023-02-22T06:26:58;100897.50;;;3.64;100.00
13612;BME280;6877;51.436;6.774;2023-02-22T06:29:25;100894.00;;;3.62;100.00
13612;BME280;6877;51.436;6.774;2023-02-22T06:31:57;100899.19;;;3.62;100.00
13612;BME280;6877;51.436;6.774;2023-02-22T06:34:23;100892.28;;;3.62;100.00
13612;BME280;6877;51.436;6.774;2023-02-22T06:36:54;100892.31;;;3.64;100.00
13612;BME280;6877;51.436;6.774;2023-02-22T06:39:21;100894.91;;;3.65;100.00
13612;BME280;6877;51.436;6.774;2023-02-22T06:41:47;100894.97;;;3.67;100.00
13612;BME280;6877;51.436;6.774;2023-02-22T06:44:15;100894.97;;;3.68;100.00
13612;BME280;6877;51.436;6.774;2023-02-22T06:46:47;100891.50;;;3.66;100.00
13612;BME280;6877;51.436;6.774;2023-02-22T06:49:17;100891.47;;;3.65;100.00
13612;BME280;6877;51.436;6.774;2023-02-22T06:51:44;100888.84;;;3.62;100.00
13612;BME280;6877;51.436;6.774;2023-02-22T06:54:11;100896.59;;;3.60;100.00
13612;BME280;6877;51.436;6.774;2023-02-22T06:56:37;100892.28;;;3.61;100.00
13612;BME280;6877;51.436;6.774;2023-02-22T06:59:04;100884.56;;;3.65;100.00
13612;BME280;6877;51.436;6.774;2023-02-22T07:01:35;100889.78;;;3.67;100.00
13612;BME280;6877;51.436;6.774;2023-02-22T07:04:02;100887.19;;;3.68;100.00
13612;BME280;6877;51.436;6.774;2023-02-22T07:06:28;100888.94;;;3.71;100.00
13612;BME280;6877;51.436;6.774;2023-02-22T07:08:55;100889.00;;;3.74;100.00
13612;BME280;6877;51.436;6.774;2023-02-22T07:11:21;100889.03;;;3.77;100.00
13612;BME280;6877;51.436;6.774;2023-02-22T07:13:48;100887.41;;;3.85;100.00
13612;BME280;6877;51.436;6.774;2023-02-22T07:16:14;100883.16;;;3.92;100.00
13612;BME280;6877;51.436;6.774;2023-02-22T07:18:41;100884.94;;;3.98;100.00
13612;BME280;6877;51.436;6.774;2023-02-22T07:21:07;100891.00;;;4.00;100.00
13612;BME280;6877;51.436;6.774;2023-02-22T07:23:34;100880.63;;;3.98;100.00
13612;BME280;6877;51.436;6.774;2023-02-22T07:26:01;100877.25;;;4.04;100.00
13612;BME280;6877;51.436;6.774;2023-02-22T07:28:33;100879.03;;;4.11;100.00
13612;BME280;6877;51.436;6.774;2023-02-22T07:31:04;100878.22;;;4.15;100.00
13612;BME280;6877;51.436;6.774;2023-02-22T07:33:31;100875.69;;;4.21;100.00
13612;BME280;6877;51.436;6.774;2023-02-22T07:35:57;100876.63;;;4.29;100.00
13612;BME280;6877;51.436;6.774;2023-02-22T07:38:28;100874.16;;;4.41;100.00
13612;BME280;6877;51.436;6.774;2023-02-22T07:41:00;100867.34;;;4.56;100.00
13612;BME280;6877;51.436;6.774;2023-02-22T07:43:31;100867.44;;;4.73;100.00
13612;BME280;6877;51.436;6.774;2023-02-22T07:45:59;100871.91;;;4.91;100.00
13612;BME280;6877;51.436;6.774;2023-02-22T07:48:29;100869.38;;;5.00;100.00
13612;BME280;6877;51.436;6.774;2023-02-22T07:51:01;100866.81;;;5.06;100.00
13612;BME280;6877;51.436;6.774;2023-02-22T07:53:29;100859.09;;;5.15;100.00
13612;BME280;6877;51.436;6.774;2023-02-22T07:55:57;100860.00;;;5.29;100.00
13612;BME280;6877;51.436;6.774;2023-02-22T07:58:26;100861.84;;;5.47;100.00
13612;BME280;6877;51.436;6.774;2023-02-22T08:00:53;100860.19;;;5.65;100.00
13612;BME280;6877;51.436;6.774;2023-02-22T08:03:25;100857.63;;;5.83;100.00
13612;BME280;6877;51.436;6.774;2023-02-22T08:05:57;100857.72;;;6.00;100.00
13612;BME280;6877;51.436;6.774;2023-02-22T08:08:25;100856.88;;;6.15;100.00
13612;BME280;6877;51.436;6.774;2023-02-22T08:10:57;100852.56;;;6.34;100.00
13612;BME280;6877;51.436;6.774;2023-02-22T08:13:28;100851.66;;;6.58;100.00
13612;BME280;6877;51.436;6.774;2023-02-22T08:15:55;100856.84;;;6.87;100.00
13612;BME280;6877;51.436;6.774;2023-02-22T08:18:23;100855.91;;;7.14;100.00
13612;BME280;6877;51.436;6.774;2023-02-22T08:20:51;100850.63;;;7.40;100.00
13612;BME280;6877;51.436;6.774;2023-02-22T08:23:20;100861.81;;;7.66;100.00
13612;BME280;6877;51.436;6.774;2023-02-22T08:25:53;100850.31;;;8.04;100.00
13612;BME280;6877;51.436;6.774;2023-02-22T08:28:24;100841.41;;;8.30;100.00
13612;BME280;6877;51.436;6.774;2023-02-22T08:30:51;100838.69;;;8.47;100.00
13612;BME280;6877;51.436;6.774;2023-02-22T08:33:23;100847.22;;;8.70;100.00
13612;BME280;6877;51.436;6.774;2023-02-22T08:35:49;100842.53;;;9.01;100.00
13612;BME280;6877;51.436;6.774;2023-02-22T08:38:21;100844.06;;;9.21;95.99
13612;BME280;6877;51.436;6.774;2023-02-22T08:40:53;100839.16;;;9.66;95.91
13612;BME280;6877;51.436;6.774;2023-02-22T08:43:20;100843.75;;;10.10;93.97
13612;BME280;6877;51.436;6.774;2023-02-22T08:45:52;100842.25;;;10.51;91.11
13612;BME280;6877;51.436;6.774;2023-02-22T08:48:19;100840.56;;;10.98;89.89
13612;BME280;6877;51.436;6.774;2023-02-22T08:50:46;100836.63;;;11.21;86.24
13612;BME280;6877;51.436;6.774;2023-02-22T08:53:14;100845.16;;;11.30;84.70
13612;BME280;6877;51.436;6.774;2023-02-22T08:55:42;100843.94;;;11.47;82.93
13612;BME280;6877;51.436;6.774;2023-02-22T08:58:14;100836.09;;;11.89;82.99
13612;BME280;6877;51.436;6.774;2023-02-22T09:00:41;100833.06;;;12.43;81.42
13612;BME280;6877;51.436;6.774;2023-02-22T09:03:11;100830.91;;;12.93;75.77
13612;BME280;6877;51.436;6.774;2023-02-22T09:05:44;100833.72;;;13.49;73.87
13612;BME280;6877;51.436;6.774;2023-02-22T09:08:16;100827.41;;;14.39;72.34
13612;BME280;6877;51.436;6.774;2023-02-22T09:10:50;100837.06;;;15.17;69.61
13612;BME280;6877;51.436;6.774;2023-02-22T09:13:22;100835.75;;;15.75;67.08
13612;BME280;6877;51.436;6.774;2023-02-22T09:15:53;100833.22;;;15.96;64.35
13612;BME280;6877;51.436;6.774;2023-02-22T09:18:19;100827.94;;;16.18;63.01
13612;BME280;6877;51.436;6.774;2023-02-22T09:20:46;100823.53;;;16.39;61.89
13612;BME280;6877;51.436;6.774;2023-02-22T09:23:18;100828.53;;;16.47;60.47
13612;BME280;6877;51.436;6.774;2023-02-22T09:25:47;100824.56;;;16.36;58.01
13612;BME280;6877;51.436;6.774;2023-02-22T09:28:18;100821.56;;;16.02;58.69
13612;BME280;6877;51.436;6.774;2023-02-22T09:30:49;100821.72;;;15.75;58.55
13612;BME280;6877;51.436;6.774;2023-02-22T09:33:18;100822.50;;;15.53;59.32
13612;BME280;6877;51.436;6.774;2023-02-22T09:35:50;100821.91;;;15.70;58.71
13612;BME280;6877;51.436;6.774;2023-02-22T09:38:19;100820.56;;;15.82;57.75
13612;BME280;6877;51.436;6.774;2023-02-22T09:40:59;100819.81;;;15.55;58.46
13612;BME280;6877;51.436;6.774;2023-02-22T09:43:43;100816.91;;;15.86;58.45
13612;BME280;6877;51.436;6.774;2023-02-22T09:48:50;100811.03;;;16.22;56.74
13612;BME280;6877;51.436;6.774;2023-02-22T09:51:19;100815.88;;;16.33;56.17
13612;BME280;6877;51.436;6.774;2023-02-22T09:53:48;100812.81;;;16.43;55.28
13612;BME280;6877;51.436;6.774;2023-02-22T09:56:19;100812.16;;;16.59;55.28
13612;BME280;6877;51.436;6.774;2023-02-22T09:58:48;100810.72;;;17.13;53.85
13612;BME280;6877;51.436;6.774;2023-02-22T10:01:27;100804.66;;;17.49;52.18
13612;BME280;6877;51.436;6.774;2023-02-22T10:04:22;100804.31;;;17.75;51.15
13612;BME280;6877;51.436;6.774;2023-02-22T10:09:44;100793.69;;;18.30;50.13
13612;BME280;6877;51.436;6.774;2023-02-22T10:12:28;100791.75;;;18.51;49.47
13612;BME280;6877;51.436;6.774;2023-02-22T10:15:16;100796.00;;;18.73;48.82
13612;BME280;6877;51.436;6.774;2023-02-22T10:18:17;100795.41;;;19.01;47.70
13612;BME280;6877;51.436;6.774;2023-02-22T10:24:25;100790.41;;;19.28;45.14
13612;BME280;6877;51.436;6.774;2023-02-22T10:26:55;100784.56;;;18.71;45.64
13612;BME280;6877;51.436;6.774;2023-02-22T10:29:36;100775.94;;;18.33;46.71
13612;BME280;6877;51.436;6.774;2023-02-22T10:32:30;100779.44;;;18.50;47.12
13612;BME280;6877;51.436;6.774;2023-02-22T10:34:59;100780.09;;;18.73;46.20
13612;BME280;6877;51.436;6.774;2023-02-22T10:40:15;100770.56;;;18.86;44.29
13612;BME280;6877;51.436;6.774;2023-02-22T10:42:53;100774.31;;;19.15;44.41
13612;BME280;6877;51.436;6.774;2023-02-22T10:45:24;100760.09;;;19.65;43.54
13612;BME280;6877;51.436;6.774;2023-02-22T10:47:55;100752.59;;;20.34;42.09
13612;BME280;6877;51.436;6.774;2023-02-22T10:50:30;100753.81;;;21.30;39.86
13612;BME280;6877;51.436;6.774;2023-02-22T10:52:57;100754.69;;;21.72;38.97
13612;BME280;6877;51.436;6.774;2023-02-22T10:55:23;100753.56;;;22.30;37.40
13612;BME280;6877;51.436;6.774;2023-02-22T10:57:51;100751.25;;;22.38;36.73
13612;BME280;6877;51.436;6.774;2023-02-22T11:00:35;100743.22;;;21.98;36.02
13612;BME280;6877;51.436;6.774;2023-02-22T11:03:17;100743.72;;;21.64;36.12
13612;BME280;6877;51.436;6.774;2023-02-22T11:05:44;100747.47;;;21.33;36.09
13612;BME280;6877;51.436;6.774;2023-02-22T11:10:53;100738.94;;;20.40;36.96
13612;BME280;6877;51.436;6.774;2023-02-22T11:16:16;100737.25;;;20.09;37.48
13612;BME280;6877;51.436;6.774;2023-02-22T11:18:48;100738.69;;;19.04;39.60
13612;BME280;6877;51.436;6.774;2023-02-22T11:21:20;100731.59;;;18.01;41.85
13612;BME280;6877;51.436;6.774;2023-02-22T11:23:48;100735.25;;;17.44;43.85
13612;BME280;6877;51.436;6.774;2023-02-22T11:26:18;100722.56;;;16.94;44.56
13612;BME280;6877;51.436;6.774;2023-02-22T11:28:50;100726.16;;;16.52;45.56
13612;BME280;6877;51.436;6.774;2023-02-22T11:36:41;100721.38;;;15.98;46.98
13612;BME280;6877;51.436;6.774;2023-02-22T11:39:24;100722.38;;;15.74;47.51
13612;BME280;6877;51.436;6.774;2023-02-22T11:41:56;100712.16;;;15.65;47.84
13612;BME280;6877;51.436;6.774;2023-02-22T11:44:29;100708.72;;;15.63;48.13
13612;BME280;6877;51.436;6.774;2023-02-22T11:46:59;100709.97;;;15.76;48.50
13612;BME280;6877;51.436;6.774;2023-02-22T11:49:38;100712.06;;;15.90;48.20
13612;BME280;6877;51.436;6.774;2023-02-22T11:52:33;100704.63;;;15.99;48.11
13612;BME280;6877;51.436;6.774;2023-02-22T11:55:25;100704.66;;;15.98;48.01
13612;BME280;6877;51.436;6.774;2023-02-22T12:03:50;100693.00;;;16.04;47.67
13612;BME280;6877;51.436;6.774;2023-02-22T12:10:13;100682.69;;;15.97;47.88
13612;BME280;6877;51.436;6.774;2023-02-22T12:12:37;100687.59;;;15.86;47.75
13612;BME280;6877;51.436;6.774;2023-02-22T12:15:17;100684.38;;;15.78;48.05
13612;BME280;6877;51.436;6.774;2023-02-22T12:21:01;100688.34;;;15.68;48.53
13612;BME280;6877;51.436;6.774;2023-02-22T12:26:26;100684.00;;;15.67;49.04
13612;BME280;6877;51.436;6.774;2023-02-22T12:29:03;100682.13;;;15.69;48.43
13612;BME280;6877;51.436;6.774;2023-02-22T12:31:41;100685.91;;;15.62;48.30
13612;BME280;6877;51.436;6.774;2023-02-22T12:34:42;100680.44;;;15.66;48.34
13612;BME280;6877;51.436;6.774;2023-02-22T12:37:24;100677.28;;;15.80;48.73
13612;BME280;6877;51.436;6.774;2023-02-22T12:46:05;100682.41;;;15.61;48.36
13612;BME280;6877;51.436;6.774;2023-02-22T12:48:48;100670.69;;;15.46;47.96
13612;BME280;6877;51.436;6.774;2023-02-22T12:57:21;100680.50;;;15.21;49.29
13612;BME280;6877;51.436;6.774;2023-02-22T13:00:02;100680.63;;;15.18;49.44
13612;BME280;6877;51.436;6.774;2023-02-22T13:02:43;100676.06;;;15.21;49.38
13612;BME280;6877;51.436;6.774;2023-02-22T13:05:17;100674.88;;;15.30;49.47
13612;BME280;6877;51.436;6.774;2023-02-22T13:24:05;100668.78;;;15.28;49.79
13612;BME280;6877;51.436;6.774;2023-02-22T13:26:49;100671.78;;;15.19;50.07
13612;BME280;6877;51.436;6.774;2023-02-22T13:29:22;100662.84;;;15.23;50.28
13612;BME280;6877;51.436;6.774;2023-02-22T13:52:37;100655.44;;;15.33;49.29
13612;BME280;6877;51.436;6.774;2023-02-22T13:55:19;100658.31;;;15.26;49.69
13612;BME280;6877;51.436;6.774;2023-02-22T13:57:48;100655.56;;;15.29;50.12
13612;BME280;6877;51.436;6.774;2023-02-22T14:00:36;100660.41;;;15.40;50.05
13612;BME280;6877;51.436;6.774;2023-02-22T14:08:05;100642.84;;;15.83;50.10
13612;BME280;6877;51.436;6.774;2023-02-22T14:10:47;100653.03;;;15.92;50.10
13612;BME280;6877;51.436;6.774;2023-02-22T14:13:20;100658.16;;;15.95;50.62
13612;BME280;6877;51.436;6.774;2023-02-22T14:21:15;100657.59;;;15.67;51.32
13612;BME280;6877;51.436;6.774;2023-02-22T14:23:44;100661.84;;;15.47;51.55
13612;BME280;6877;51.436;6.774;2023-02-22T14:31:29;100654.41;;;14.91;53.38
13612;BME280;6877;51.436;6.774;2023-02-22T14:34:01;100655.66;;;14.81;53.70
13612;BME280;6877;51.436;6.774;2023-02-22T14:36:55;100659.56;;;14.71;53.84
13612;BME280;6877;51.436;6.774;2023-02-22T14:47:08;100655.69;;;14.56;54.81
13612;BME280;6877;51.436;6.774;2023-02-22T14:49:42;100649.47;;;14.58;54.90
13612;BME280;6877;51.436;6.774;2023-02-22T14:52:28;100648.44;;;14.63;54.92
13612;BME280;6877;51.436;6.774;2023-02-22T14:55:01;100658.84;;;14.66;55.24
13612;BME280;6877;51.436;6.774;2023-02-22T15:00:22;100655.22;;;14.70;55.19
13612;BME280;6877;51.436;6.774;2023-02-22T15:02:58;100659.56;;;14.71;55.64
13612;BME280;6877;51.436;6.774;2023-02-22T15:05:35;100661.16;;;14.75;55.87
13612;BME280;6877;51.436;6.774;2023-02-22T15:08:06;100658.38;;;14.79;56.06
13612;BME280;6877;51.436;6.774;2023-02-22T15:13:23;100657.41;;;14.82;56.28
13612;BME280;6877;51.436;6.774;2023-02-22T15:15:58;100657.41;;;14.82;56.63
13612;BME280;6877;51.436;6.774;2023-02-22T15:20:56;100650.94;;;14.66;57.61
13612;BME280;6877;51.436;6.774;2023-02-22T15:23:28;100657.34;;;14.60;57.77
13612;BME280;6877;51.436;6.774;2023-02-22T15:25:58;100663.56;;;14.57;58.29
13612;BME280;6877;51.436;6.774;2023-02-22T15:28:27;100665.56;;;14.49;58.38
13612;BME280;6877;51.436;6.774;2023-02-22T15:31:21;100668.63;;;14.37;58.79
13612;BME280;6877;51.436;6.774;2023-02-22T15:33:50;100669.88;;;14.27;59.27
13612;BME280;6877;51.436;6.774;2023-02-22T15:36:27;100672.91;;;14.16;59.60
13612;BME280;6877;51.436;6.774;2023-02-22T15:38:56;100669.88;;;14.02;60.21
13612;BME280;6877;51.436;6.774;2023-02-22T15:41:30;100670.19;;;13.93;60.65
13612;BME280;6877;51.436;6.774;2023-02-22T15:44:09;100669.63;;;13.83;61.04
13612;BME280;6877;51.436;6.774;2023-02-22T15:46:39;100670.84;;;13.73;61.62
13612;BME280;6877;51.436;6.774;2023-02-22T15:51:39;100675.88;;;13.52;62.55
13612;BME280;6877;51.436;6.774;2023-02-22T15:54:12;100672.66;;;13.44;63.06
13612;BME280;6877;51.436;6.774;2023-02-22T15:56:52;100666.81;;;13.34;63.22
13612;BME280;6877;51.436;6.774;2023-02-22T15:59:27;100667.91;;;13.27;63.42
13612;BME280;6877;51.436;6.774;2023-02-22T16:01:59;100675.06;;;13.22;63.88
13612;BME280;6877;51.436;6.774;2023-02-22T16:04:30;100678.63;;;13.19;64.48
13612;BME280;6877;51.436;6.774;2023-02-22T16:07:07;100678.81;;;13.13;64.77